Sugar Valley, Texas
Current Conditions -  °F | °C
As of 2:53 PM on Tuesday 25 Nov 2014 (Local Time) from KLBX Reporting Station
Clear Clear  
Wind Chill: 65°   Ceiling: Unl
Heat Index: 65°   Visibility: 10mi
Dew Point: 25°   Wind: 7mph
Humidity: 22%   Direction: 350°N
Pressure: 30.24"   Gusts: NA
Location:  29.0235°N, 95.7113°W
Report Text: KLBX 252053Z AUTO 35006KT 10SM CLR 18/M04 A3024 RMK AO2 SLP239 T01831039 56019
Loading
Personal Weather Stations






























Interactive Weather Map New forecast layout! Learn more

10-Day Weather Forecast

Advertisements
Track Severe Weather on mobile